createdAt,value
2023-08-08T00:00:29.372Z,99591.05
2023-08-08T00:03:17.258Z,99597.28
2023-08-08T00:05:45.308Z,99595.90
2023-08-08T00:08:13.154Z,99599.86
2023-08-08T00:10:41.018Z,99598.91
2023-08-08T00:13:08.892Z,99609.29
2023-08-08T00:15:37.826Z,99609.52
2023-08-08T00:18:06.232Z,99607.39
2023-08-08T00:20:34.331Z,99610.50
2023-08-08T00:23:02.291Z,99610.23
2023-08-08T00:25:30.055Z,99615.32
2023-08-08T00:27:57.950Z,99616.17
2023-08-08T00:30:25.904Z,99620.84
2023-08-08T00:32:53.871Z,99617.65
2023-08-08T00:35:21.826Z,99619.75
2023-08-08T00:37:50.202Z,99623.35
2023-08-08T00:40:18.172Z,99623.92
2023-08-08T00:42:46.044Z,99625.04
2023-08-08T00:45:14.016Z,99627.51
2023-08-08T00:47:42.128Z,99631.02
2023-08-08T00:50:11.682Z,99631.30
2023-08-08T00:52:40.472Z,99633.95
2023-08-08T00:55:09.243Z,99642.55
2023-08-08T00:57:39.469Z,99639.80
2023-08-08T01:00:10.465Z,99640.35
2023-08-08T01:02:38.845Z,99643.46
2023-08-08T01:05:08.944Z,99647.45
2023-08-08T01:07:39.744Z,99651.17
2023-08-08T01:10:12.554Z,99651.60
2023-08-08T01:12:43.515Z,99651.54
2023-08-08T01:15:12.120Z,99655.34
2023-08-08T01:17:42.129Z,99659.48
2023-08-08T01:20:11.838Z,99660.02
2023-08-08T01:22:44.704Z,99659.69
2023-08-08T01:25:12.857Z,99665.34
2023-08-08T01:27:40.895Z,99663.84
2023-08-08T01:30:10.257Z,99671.76
2023-08-08T01:32:38.110Z,99670.91
2023-08-08T01:35:06.926Z,99671.30
2023-08-08T01:37:45.569Z,99674.42
2023-08-08T01:40:18.571Z,99674.33
2023-08-08T01:42:47.854Z,99677.30
2023-08-08T01:45:19.315Z,99682.84
2023-08-08T01:47:53.558Z,99686.63
2023-08-08T01:50:22.724Z,99691.05
2023-08-08T01:52:50.584Z,99691.28
2023-08-08T01:55:18.548Z,99695.48
2023-08-08T01:57:46.418Z,99692.12
2023-08-08T02:00:14.796Z,99696.90
2023-08-08T02:02:43.152Z,99702.27
2023-08-08T02:05:11.160Z,99704.17
2023-08-08T02:07:39.108Z,99704.90
2023-08-08T02:10:07.851Z,99711.83
2023-08-08T02:12:36.398Z,99717.73
2023-08-08T02:15:05.771Z,99716.77
2023-08-08T02:17:33.697Z,99725.77
2023-08-08T02:20:01.615Z,99724.42
2023-08-08T02:22:29.473Z,99723.30
2023-08-08T02:24:57.265Z,99729.70
2023-08-08T02:27:25.940Z,99732.18
2023-08-08T02:29:53.999Z,99738.74
2023-08-08T02:32:21.862Z,99742.12
2023-08-08T02:34:49.725Z,99741.48
2023-08-08T02:37:17.696Z,99744.63
2023-08-08T02:39:46.071Z,99746.42
2023-08-08T02:42:13.935Z,99753.34
2023-08-08T02:44:41.699Z,99749.98
2023-08-08T02:47:09.598Z,99753.45
2023-08-08T02:49:37.692Z,99751.27
2023-08-08T02:52:05.857Z,99750.83
2023-08-08T02:54:33.779Z,99757.73
2023-08-08T02:57:01.845Z,99756.41
2023-08-08T02:59:30.260Z,99756.80
2023-08-08T03:01:58.433Z,99756.02
2023-08-08T03:04:26.804Z,99757.10
2023-08-08T03:06:54.660Z,99764.33
2023-08-08T03:09:22.772Z,99767.30
2023-08-08T03:11:50.614Z,99773.17
2023-08-08T03:14:18.553Z,99773.39
2023-08-08T03:16:46.516Z,99773.57
2023-08-08T03:19:14.414Z,99781.27
2023-08-08T03:21:42.497Z,99783.55
2023-08-08T03:24:10.725Z,99785.82
2023-08-08T03:26:38.600Z,99786.02
2023-08-08T03:29:06.505Z,99788.78
2023-08-08T03:31:34.631Z,99791.40
2023-08-08T03:34:02.517Z,99794.64
2023-08-08T03:36:30.361Z,99798.21
2023-08-08T03:38:59.180Z,99805.07
2023-08-08T03:41:27.014Z,99799.08
2023-08-08T03:43:54.884Z,99805.05
2023-08-08T03:46:22.978Z,99807.97
2023-08-08T03:48:54.051Z,99813.11
2023-08-08T03:51:22.470Z,99816.67
2023-08-08T03:53:50.350Z,99821.97
2023-08-08T03:56:18.138Z,99824.14
2023-08-08T03:58:46.272Z,99825.14
2023-08-08T04:01:14.205Z,99831.77
2023-08-08T04:03:42.277Z,99832.08
2023-08-08T04:06:10.107Z,99834.04
2023-08-08T04:08:37.947Z,99837.91
2023-08-08T04:11:05.915Z,99838.73
2023-08-08T04:13:33.896Z,99841.99
2023-08-08T04:16:02.258Z,99841.63
2023-08-08T04:18:30.125Z,99848.77
2023-08-08T04:20:57.991Z,99852.36
2023-08-08T04:23:27.231Z,99862.08
2023-08-08T04:25:55.364Z,99863.41
2023-08-08T04:28:23.225Z,99868.30
2023-08-08T04:30:51.089Z,99873.25
2023-08-08T04:33:19.167Z,99873.61
2023-08-08T04:35:48.767Z,99874.60
2023-08-08T04:38:17.252Z,99874.52
2023-08-08T04:40:45.216Z,99875.96
2023-08-08T04:43:13.025Z,99872.91
2023-08-08T04:45:40.957Z,99883.60
2023-08-08T04:48:08.809Z,99887.08
2023-08-08T04:50:36.684Z,99888.38
2023-08-08T04:53:04.753Z,99883.64
2023-08-08T04:55:32.818Z,99889.61
2023-08-08T04:58:00.693Z,99895.90
2023-08-08T05:00:29.052Z,99896.02
2023-08-08T05:02:57.128Z,99903.60
2023-08-08T05:05:25.100Z,99899.02
2023-08-08T05:07:53.007Z,99905.56
2023-08-08T05:10:20.936Z,99903.91
2023-08-08T05:12:48.803Z,99906.54
2023-08-08T05:15:16.878Z,99912.98
2023-08-08T05:17:44.859Z,99911.02
2023-08-08T05:20:13.526Z,99913.33
2023-08-08T05:22:41.598Z,99911.06
2023-08-08T05:25:10.361Z,99912.33
2023-08-08T05:27:38.172Z,99916.39
2023-08-08T05:30:06.871Z,99913.75
2023-08-08T05:32:34.831Z,99920.42
2023-08-08T05:35:05.649Z,99924.00
2023-08-08T05:37:33.635Z,99926.67
2023-08-08T05:40:01.671Z,99926.60
2023-08-08T05:42:29.646Z,99930.30
2023-08-08T05:44:57.605Z,99932.13
2023-08-08T05:47:25.893Z,99935.48
2023-08-08T05:49:53.893Z,99935.69
2023-08-08T05:52:22.649Z,99940.31
2023-08-08T05:54:50.497Z,99945.07
2023-08-08T05:57:18.673Z,99945.66
2023-08-08T05:59:46.465Z,99943.87
2023-08-08T06:02:14.298Z,99947.69
2023-08-08T06:04:42.269Z,99945.65
2023-08-08T06:07:10.357Z,99952.03
2023-08-08T06:09:41.489Z,99955.04
2023-08-08T06:12:10.200Z,99955.33
2023-08-08T06:14:38.145Z,99966.78
2023-08-08T06:17:06.930Z,99966.73
2023-08-08T06:19:34.862Z,99969.91
2023-08-08T06:22:04.589Z,99972.21
2023-08-08T06:24:33.212Z,99970.39
2023-08-08T06:27:01.258Z,99973.79
2023-08-08T06:29:29.233Z,99971.59
2023-08-08T06:31:57.318Z,99975.33
2023-08-08T06:34:25.773Z,99979.02
2023-08-08T06:36:53.861Z,99977.71
2023-08-08T06:39:23.050Z,99981.53
2023-08-08T06:41:51.674Z,99980.06
2023-08-08T06:44:23.905Z,99984.27
2023-08-08T06:46:53.025Z,99987.17
2023-08-08T06:49:21.464Z,99983.41
2023-08-08T06:51:49.441Z,99986.05
2023-08-08T06:54:17.820Z,99984.20
2023-08-08T06:56:46.095Z,99983.39
2023-08-08T06:59:14.465Z,99988.55
2023-08-08T07:01:42.597Z,99993.54
2023-08-08T07:04:10.821Z,99989.48
2023-08-08T07:06:40.963Z,99990.91
2023-08-08T07:09:15.911Z,99992.30
2023-08-08T07:11:45.782Z,99993.55
2023-08-08T07:14:17.982Z,99994.53
2023-08-08T07:16:46.420Z,99993.28
2023-08-08T07:19:14.497Z,99990.73
2023-08-08T07:21:48.096Z,99992.42
2023-08-08T07:24:16.165Z,99990.29
2023-08-08T07:26:44.844Z,99993.56
2023-08-08T07:29:12.756Z,99994.31
2023-08-08T07:31:40.790Z,99989.42
2023-08-08T07:34:08.750Z,99987.39
2023-08-08T07:36:36.817Z,99982.36
2023-08-08T07:39:04.791Z,99985.92
2023-08-08T07:41:33.279Z,99993.72
2023-08-08T07:44:01.248Z,99996.35
2023-08-08T07:46:29.646Z,99998.19
2023-08-08T07:49:00.552Z,100002.85
2023-08-08T07:51:28.931Z,99996.54
2023-08-08T07:53:56.897Z,99998.90
2023-08-08T07:56:25.009Z,99999.04
2023-08-08T07:58:53.142Z,99997.02
2023-08-08T08:01:21.044Z,99997.34
2023-08-08T08:03:49.177Z,99998.27
2023-08-08T08:06:17.351Z,100000.77
2023-08-08T08:08:45.627Z,99997.52
2023-08-08T08:11:14.520Z,99998.59
2023-08-08T08:13:42.424Z,100000.19
2023-08-08T08:16:10.356Z,100001.01
2023-08-08T08:18:38.324Z,100001.25
2023-08-08T08:21:06.404Z,100004.91
2023-08-08T08:23:34.989Z,100005.29
2023-08-08T08:26:04.190Z,100003.41
2023-08-08T08:28:32.442Z,100005.88
2023-08-08T08:31:06.190Z,100002.84
2023-08-08T08:33:34.125Z,99997.94
2023-08-08T08:36:02.189Z,99997.23
2023-08-08T08:38:30.162Z,99995.69
2023-08-08T08:40:58.892Z,99998.06
2023-08-08T08:43:27.371Z,99995.49
2023-08-08T08:45:56.246Z,99997.00
2023-08-08T08:48:24.742Z,99994.55
2023-08-08T08:50:53.281Z,99995.22
2023-08-08T08:53:23.284Z,99997.27
2023-08-08T08:55:52.695Z,99999.93
2023-08-08T08:58:21.887Z,100002.35
2023-08-08T09:00:50.688Z,99998.42
2023-08-08T09:03:18.916Z,100002.71
2023-08-08T09:05:47.355Z,100006.65
2023-08-08T09:08:16.485Z,100006.46
2023-08-08T09:10:44.546Z,100003.26
2023-08-08T09:13:12.464Z,100011.60
2023-08-08T09:15:41.224Z,100008.64
2023-08-08T09:18:09.253Z,100009.51
2023-08-08T09:20:37.127Z,100009.36
2023-08-08T09:23:05.360Z,100013.14
2023-08-08T09:25:33.741Z,100013.71
2023-08-08T09:28:02.012Z,100013.84
2023-08-08T09:30:32.247Z,100015.33
2023-08-08T09:33:02.882Z,100017.66
2023-08-08T09:35:31.790Z,100016.91
2023-08-08T09:38:00.477Z,100017.60
2023-08-08T09:40:29.133Z,100019.84
2023-08-08T09:42:58.395Z,100019.34
2023-08-08T09:45:26.801Z,100024.54
2023-08-08T09:47:54.811Z,100017.84
2023-08-08T09:50:23.051Z,100017.12
2023-08-08T09:52:51.863Z,100025.44
2023-08-08T09:55:20.121Z,100025.30
2023-08-08T09:57:49.862Z,100028.19
2023-08-08T10:00:18.420Z,100029.46
2023-08-08T10:02:47.127Z,100031.79
2023-08-08T10:05:16.087Z,100027.05
2023-08-08T10:07:47.556Z,100027.17
2023-08-08T10:10:17.033Z,100021.95
2023-08-08T10:12:45.208Z,100019.11
2023-08-08T10:15:13.692Z,100016.77
2023-08-08T10:17:44.180Z,100024.74
2023-08-08T10:20:13.045Z,100028.15
2023-08-08T10:22:47.060Z,100025.94
2023-08-08T10:25:26.444Z,100026.84
2023-08-08T10:28:24.604Z,100027.89
2023-08-08T10:30:57.806Z,100023.17
2023-08-08T10:33:28.134Z,100021.08
2023-08-08T10:36:04.708Z,100017.27
2023-08-08T10:38:59.806Z,100019.94
2023-08-08T10:41:27.801Z,100019.55
2023-08-08T10:43:58.632Z,100030.38
2023-08-08T10:46:30.372Z,100034.91
2023-08-08T10:49:02.889Z,100033.02
2023-08-08T10:51:38.711Z,100037.45
2023-08-08T10:54:07.797Z,100022.74
2023-08-08T10:56:37.766Z,100029.19
2023-08-08T10:59:21.923Z,100023.85
2023-08-08T11:01:52.382Z,100031.78
2023-08-08T11:04:23.009Z,100032.98
2023-08-08T11:06:51.502Z,100038.14
2023-08-08T11:09:21.669Z,100039.21
2023-08-08T11:11:50.007Z,100040.46
2023-08-08T11:14:20.853Z,100035.60
2023-08-08T11:16:49.836Z,100041.73
2023-08-08T11:19:20.622Z,100042.21
2023-08-08T11:21:49.710Z,100041.60
2023-08-08T11:24:17.850Z,100039.66
2023-08-08T11:26:49.003Z,100039.20
2023-08-08T11:29:17.237Z,100040.97
2023-08-08T11:31:45.215Z,100039.29
2023-08-08T11:34:17.158Z,100037.02
2023-08-08T11:36:45.802Z,100038.10
2023-08-08T11:39:15.758Z,100031.04
2023-08-08T11:41:44.649Z,100033.73
2023-08-08T11:44:13.358Z,100035.62
2023-08-08T11:46:46.818Z,100036.41
2023-08-08T11:49:17.178Z,100038.44
2023-08-08T11:51:47.069Z,100034.58
2023-08-08T11:54:16.127Z,100038.65
2023-08-08T11:56:46.898Z,100044.58
2023-08-08T11:59:14.910Z,100048.23
2023-08-08T12:01:45.339Z,100048.77
2023-08-08T12:04:13.577Z,100058.42
2023-08-08T12:06:43.864Z,100056.92
2023-08-08T12:09:15.034Z,100050.85
2023-08-08T12:11:43.265Z,100048.23
2023-08-08T12:14:12.017Z,100057.96
2023-08-08T12:16:40.990Z,100053.73
2023-08-08T12:19:12.606Z,100060.02
2023-08-08T12:21:41.078Z,100053.95
2023-08-08T12:24:09.123Z,100049.01
2023-08-08T12:26:37.839Z,100055.48
2023-08-08T12:29:06.069Z,100056.28
2023-08-08T12:31:34.131Z,100051.23
2023-08-08T12:34:02.432Z,100049.25
2023-08-08T12:36:30.387Z,100050.27
2023-08-08T12:38:58.673Z,100046.58
2023-08-08T12:41:27.043Z,100045.48
2023-08-08T12:43:55.015Z,100048.30
2023-08-08T12:46:23.023Z,100056.56
2023-08-08T12:48:50.941Z,100066.13
2023-08-08T12:51:19.418Z,100061.59
2023-08-08T12:53:47.281Z,100065.64
2023-08-08T12:56:15.765Z,100062.62
2023-08-08T12:58:43.736Z,100059.89
2023-08-08T13:01:12.017Z,100071.58
2023-08-08T13:03:45.323Z,100072.09
2023-08-08T13:06:16.035Z,100071.84
2023-08-08T13:08:44.106Z,100078.14
2023-08-08T13:11:12.186Z,100081.33
2023-08-08T13:13:40.145Z,100086.74
2023-08-08T13:16:08.032Z,100092.42
2023-08-08T13:18:36.083Z,100096.64
2023-08-08T13:21:06.313Z,100093.02
2023-08-08T13:23:34.679Z,100098.45
2023-08-08T13:26:02.650Z,100103.80
2023-08-08T13:28:31.421Z,100101.27
2023-08-08T13:30:59.752Z,100102.61
2023-08-08T13:33:27.782Z,100102.83
2023-08-08T13:35:55.948Z,100100.31
2023-08-08T13:38:25.571Z,100094.42
2023-08-08T13:40:56.298Z,100095.06
2023-08-08T13:43:25.210Z,100094.78
2023-08-08T13:45:53.486Z,100088.52
2023-08-08T13:48:29.663Z,100087.33
2023-08-08T13:50:58.414Z,100088.95
2023-08-08T13:53:29.242Z,100086.19
2023-08-08T13:55:58.175Z,100083.05
2023-08-08T13:58:27.153Z,100081.31
2023-08-08T14:00:59.125Z,100081.66
2023-08-08T14:03:27.759Z,100081.52
2023-08-08T14:05:57.377Z,100075.52
2023-08-08T14:08:26.513Z,100076.89
2023-08-08T14:10:56.293Z,100081.80
2023-08-08T14:13:29.588Z,100078.95
2023-08-08T14:15:57.984Z,100078.15
2023-08-08T14:18:26.872Z,100071.58
2023-08-08T14:20:56.369Z,100067.77
2023-08-08T14:23:24.841Z,100073.50
2023-08-08T14:25:53.170Z,100071.56
2023-08-08T14:28:23.613Z,100077.51
2023-08-08T14:30:52.420Z,100084.11
2023-08-08T14:33:20.601Z,100083.41
2023-08-08T14:35:48.880Z,100083.98
2023-08-08T14:38:17.282Z,100089.89
2023-08-08T14:40:45.319Z,100085.96
2023-08-08T14:43:13.393Z,100089.82
2023-08-08T14:45:42.267Z,100086.54
2023-08-08T14:48:10.249Z,100083.36
2023-08-08T14:50:38.578Z,100082.69
2023-08-08T14:53:07.114Z,100076.26
2023-08-08T14:55:35.058Z,100075.06
2023-08-08T14:58:03.011Z,100079.84
2023-08-08T15:00:30.899Z,100082.92
2023-08-08T15:02:58.803Z,100080.18
2023-08-08T15:05:27.039Z,100078.35
2023-08-08T15:07:55.137Z,100078.87
2023-08-08T15:10:23.179Z,100076.54
2023-08-08T15:12:51.462Z,100080.23
2023-08-08T15:15:21.772Z,100077.54
2023-08-08T15:17:50.356Z,100078.83
2023-08-08T15:20:18.877Z,100077.08
2023-08-08T15:22:46.868Z,100075.97
2023-08-08T15:25:14.916Z,100074.85
2023-08-08T15:27:42.872Z,100075.00
2023-08-08T15:30:11.708Z,100075.41
2023-08-08T15:32:39.738Z,100075.45
2023-08-08T15:35:08.328Z,100071.92
2023-08-08T15:37:36.291Z,100068.86
2023-08-08T15:40:04.956Z,100080.08
2023-08-08T15:42:33.149Z,100077.10
2023-08-08T15:45:01.494Z,100081.65
2023-08-08T15:47:29.712Z,100085.23
2023-08-08T15:49:57.944Z,100086.83
2023-08-08T15:52:26.221Z,100087.63
2023-08-08T15:54:54.179Z,100092.14
2023-08-08T15:57:22.654Z,100096.90
2023-08-08T15:59:50.758Z,100095.70
2023-08-08T16:02:19.366Z,100101.97
2023-08-08T16:04:48.074Z,100102.50
2023-08-08T16:07:19.922Z,100102.56
2023-08-08T16:09:48.139Z,100099.09
2023-08-08T16:12:16.179Z,100102.72
2023-08-08T16:14:44.224Z,100111.81
2023-08-08T16:17:12.257Z,100118.17
2023-08-08T16:19:40.237Z,100116.14
2023-08-08T16:22:08.485Z,100114.55
2023-08-08T16:24:36.693Z,100109.68
2023-08-08T16:27:05.031Z,100111.14
2023-08-08T16:29:33.104Z,100107.46
2023-08-08T16:32:01.177Z,100110.04
2023-08-08T16:34:32.236Z,100107.73
2023-08-08T16:37:00.535Z,100106.89
2023-08-08T16:39:31.220Z,100110.59
2023-08-08T16:42:08.824Z,100107.14
2023-08-08T16:44:39.137Z,100108.48
2023-08-08T16:47:08.030Z,100108.66
2023-08-08T16:49:37.431Z,100108.42
2023-08-08T16:52:09.054Z,100105.61
2023-08-08T16:54:39.537Z,100105.89
2023-08-08T16:57:13.021Z,100107.48
2023-08-08T16:59:41.642Z,100102.41
2023-08-08T17:02:10.991Z,100100.88
2023-08-08T17:04:40.604Z,100097.37
2023-08-08T17:07:15.434Z,100101.10
2023-08-08T17:09:44.972Z,100097.83
2023-08-08T17:12:14.555Z,100103.09
2023-08-08T17:14:42.762Z,100100.91
2023-08-08T17:17:12.125Z,100102.02
2023-08-08T17:19:40.503Z,100104.22
2023-08-08T17:22:09.824Z,100106.73
2023-08-08T17:24:40.571Z,100106.73
2023-08-08T17:27:09.321Z,100110.87
2023-08-08T17:29:45.684Z,100111.10
2023-08-08T17:32:14.878Z,100111.98
2023-08-08T17:34:43.365Z,100112.11
2023-08-08T17:37:11.329Z,100115.54
2023-08-08T17:39:39.305Z,100115.20
2023-08-08T17:42:07.280Z,100117.13
2023-08-08T17:44:35.335Z,100116.61
2023-08-08T17:47:03.304Z,100118.18
2023-08-08T17:49:31.165Z,100120.55
2023-08-08T17:51:59.444Z,100120.79
2023-08-08T17:54:27.569Z,100120.03
2023-08-08T17:56:55.376Z,100123.31
2023-08-08T17:59:25.900Z,100124.64
2023-08-08T18:01:56.708Z,100125.05
2023-08-08T18:04:24.723Z,100123.04
2023-08-08T18:06:52.686Z,100121.52
2023-08-08T18:09:20.770Z,100122.45
2023-08-08T18:11:48.713Z,100127.99
2023-08-08T18:14:16.682Z,100128.45
2023-08-08T18:16:44.647Z,100129.79
2023-08-08T18:19:12.628Z,100131.00
2023-08-08T18:21:40.493Z,100130.03
2023-08-08T18:24:09.241Z,100132.00
2023-08-08T18:26:37.137Z,100131.71
2023-08-08T18:29:05.704Z,100132.81
2023-08-08T18:31:34.038Z,100133.73
2023-08-08T18:34:03.184Z,100136.53
2023-08-08T18:36:31.672Z,100139.66
2023-08-08T18:38:59.738Z,100140.91
2023-08-08T18:41:28.223Z,100142.67
2023-08-08T18:43:56.494Z,100140.66
2023-08-08T18:46:24.810Z,100141.54
2023-08-08T18:48:53.899Z,100140.61
2023-08-08T18:51:23.569Z,100141.14
2023-08-08T18:53:54.004Z,100142.48
2023-08-08T18:56:22.144Z,100141.61
2023-08-08T18:58:51.674Z,100139.87
2023-08-08T19:01:19.895Z,100136.25
2023-08-08T19:03:50.552Z,100136.44
2023-08-08T19:06:19.176Z,100136.80
2023-08-08T19:09:08.902Z,100138.00
2023-08-08T19:11:38.794Z,100140.55
2023-08-08T19:14:06.939Z,100136.23
2023-08-08T19:16:36.759Z,100136.64
2023-08-08T19:19:05.550Z,100137.09
2023-08-08T19:21:34.131Z,100138.96
2023-08-08T19:24:02.481Z,100138.74
2023-08-08T19:26:34.710Z,100145.41
2023-08-08T19:29:04.361Z,100139.70
2023-08-08T19:31:32.921Z,100136.73
2023-08-08T19:34:07.012Z,100137.86
2023-08-08T19:36:38.542Z,100138.23
2023-08-08T19:39:06.804Z,100138.66
2023-08-08T19:41:34.850Z,100135.64
2023-08-08T19:44:02.925Z,100132.27
2023-08-08T19:46:30.855Z,100133.70
2023-08-08T19:48:58.755Z,100133.08
2023-08-08T19:51:29.124Z,100134.02
2023-08-08T19:53:59.290Z,100132.17
2023-08-08T19:56:27.930Z,100132.57
2023-08-08T19:58:55.971Z,100130.59
2023-08-08T20:01:26.349Z,100129.59
2023-08-08T20:03:54.356Z,100123.80
2023-08-08T20:06:22.633Z,100127.08
2023-08-08T20:08:50.685Z,100124.69
2023-08-08T20:11:18.754Z,100123.17
2023-08-08T20:13:47.066Z,100121.67
2023-08-08T20:16:15.254Z,100125.25
2023-08-08T20:18:43.286Z,100123.73
2023-08-08T20:21:11.247Z,100123.27
2023-08-08T20:23:39.111Z,100121.11
2023-08-08T20:26:07.485Z,100119.59
2023-08-08T20:28:35.494Z,100123.56
2023-08-08T20:31:04.150Z,100125.38
2023-08-08T20:33:32.520Z,100127.66
2023-08-08T20:36:00.686Z,100128.19
2023-08-08T20:38:30.361Z,100124.77
2023-08-08T20:41:00.627Z,100126.50
2023-08-08T20:43:29.023Z,100126.48
2023-08-08T20:46:16.318Z,100124.91
2023-08-08T20:48:47.578Z,100129.21
2023-08-08T20:51:16.586Z,100128.69
2023-08-08T20:53:47.907Z,100127.27
2023-08-08T20:56:23.461Z,100124.81
2023-08-08T20:58:53.386Z,100121.36
2023-08-08T21:01:24.338Z,100117.55
2023-08-08T21:03:55.168Z,100113.71
2023-08-08T21:06:26.732Z,100116.75
2023-08-08T21:09:00.080Z,100115.20
2023-08-08T21:11:30.662Z,100116.91
2023-08-08T21:13:59.304Z,100117.95
2023-08-08T21:16:31.071Z,100120.94
2023-08-08T21:19:01.184Z,100123.92
2023-08-08T21:21:31.913Z,100132.24
2023-08-08T21:24:00.241Z,100134.55
2023-08-08T21:26:38.581Z,100136.98
2023-08-08T21:29:09.293Z,100137.57
2023-08-08T21:31:45.182Z,100133.19
2023-08-08T21:34:14.900Z,100139.19
2023-08-08T21:36:43.893Z,100141.48
2023-08-08T21:39:11.956Z,100138.05
2023-08-08T21:41:40.036Z,100140.27
2023-08-08T21:44:08.002Z,100136.65
2023-08-08T21:46:35.941Z,100136.10
2023-08-08T21:49:04.033Z,100137.77
2023-08-08T21:51:31.905Z,100138.45
2023-08-08T21:53:59.780Z,100136.50
2023-08-08T21:56:27.730Z,100141.08
2023-08-08T21:58:55.638Z,100146.84
2023-08-08T22:01:23.567Z,100147.48
2023-08-08T22:03:51.747Z,100144.88
2023-08-08T22:06:20.217Z,100148.23
2023-08-08T22:08:47.999Z,100155.36
2023-08-08T22:11:15.848Z,100159.59
2023-08-08T22:13:43.919Z,100164.70
2023-08-08T22:16:11.910Z,100172.59
2023-08-08T22:18:39.849Z,100164.23
2023-08-08T22:21:08.337Z,100167.17
2023-08-08T22:23:36.345Z,100177.84
2023-08-08T22:26:04.266Z,100180.30
2023-08-08T22:28:32.468Z,100179.20
2023-08-08T22:31:00.460Z,100173.60
2023-08-08T22:33:28.582Z,100168.86
2023-08-08T22:35:56.775Z,100171.98
2023-08-08T22:38:24.840Z,100168.07
2023-08-08T22:40:53.130Z,100155.23
2023-08-08T22:43:21.683Z,100148.69
2023-08-08T22:45:49.983Z,100145.95
2023-08-08T22:48:18.540Z,100136.05
2023-08-08T22:50:46.717Z,100138.63
2023-08-08T22:53:14.717Z,100140.02
2023-08-08T22:55:45.829Z,100147.27
2023-08-08T22:58:15.173Z,100140.66
2023-08-08T23:00:43.922Z,100139.00
2023-08-08T23:03:12.119Z,100147.59
2023-08-08T23:05:40.366Z,100154.39
2023-08-08T23:08:09.144Z,100155.84
2023-08-08T23:10:37.048Z,100155.20
2023-08-08T23:13:04.983Z,100153.20
2023-08-08T23:15:32.801Z,100154.42
2023-08-08T23:18:00.637Z,100156.35
2023-08-08T23:20:28.991Z,100154.52
2023-08-08T23:22:56.901Z,100158.86
2023-08-08T23:25:26.296Z,100161.69
2023-08-08T23:27:54.657Z,100163.06
2023-08-08T23:30:22.819Z,100165.48
2023-08-08T23:32:54.533Z,100163.27
2023-08-08T23:35:23.644Z,100162.96
2023-08-08T23:37:52.480Z,100161.11
2023-08-08T23:40:20.721Z,100160.43
2023-08-08T23:42:48.941Z,100158.22
2023-08-08T23:45:16.884Z,100156.86
2023-08-08T23:47:44.777Z,100156.88
2023-08-08T23:50:13.724Z,100153.83
2023-08-08T23:52:41.997Z,100158.45
2023-08-08T23:55:11.084Z,100157.11
2023-08-08T23:57:39.084Z,100160.23
